sensor_id;sensor_type;location;lat;lon;timestamp;pressure;altitude;pressure_sealevel;temperature;humidity
79131;BME280;72396;45.194;9.142;2024-01-06T00:01:36;99393.31;;;7.92;68.37
79131;BME280;72396;45.194;9.142;2024-01-06T00:04:01;99402.56;;;8.01;68.30
79131;BME280;72396;45.194;9.142;2024-01-06T00:06:26;99393.66;;;8.04;68.02
79131;BME280;72396;45.194;9.142;2024-01-06T00:08:52;99401.53;;;8.04;68.60
79131;BME280;72396;45.194;9.142;2024-01-06T00:11:20;99399.94;;;8.01;68.29
79131;BME280;72396;45.194;9.142;2024-01-06T00:13:46;99399.72;;;8.06;68.60
79131;BME280;72396;45.194;9.142;2024-01-06T00:16:11;99363.22;;;7.80;68.04
79131;BME280;72396;45.194;9.142;2024-01-06T00:18:36;99382.81;;;7.92;68.90
79131;BME280;72396;45.194;9.142;2024-01-06T00:21:02;99384.97;;;8.03;68.50
79131;BME280;72396;45.194;9.142;2024-01-06T00:23:27;99378.66;;;8.07;67.73
79131;BME280;72396;45.194;9.142;2024-01-06T00:25:52;99375.75;;;8.14;68.29
79131;BME280;72396;45.194;9.142;2024-01-06T00:28:18;99378.59;;;8.09;68.25
79131;BME280;72396;45.194;9.142;2024-01-06T00:30:43;99373.19;;;8.12;67.66
79131;BME280;72396;45.194;9.142;2024-01-06T00:33:08;99370.50;;;8.14;68.00
79131;BME280;72396;45.194;9.142;2024-01-06T00:35:33;99368.22;;;8.06;67.98
79131;BME280;72396;45.194;9.142;2024-01-06T00:37:59;99364.72;;;8.05;68.24
79131;BME280;72396;45.194;9.142;2024-01-06T00:40:25;99361.72;;;7.94;68.35
79131;BME280;72396;45.194;9.142;2024-01-06T00:42:51;99370.72;;;8.09;68.22
79131;BME280;72396;45.194;9.142;2024-01-06T00:45:16;99366.72;;;8.00;67.71
79131;BME280;72396;45.194;9.142;2024-01-06T00:47:42;99366.78;;;7.99;68.22
79131;BME280;72396;45.194;9.142;2024-01-06T00:50:07;99354.72;;;7.94;68.31
79131;BME280;72396;45.194;9.142;2024-01-06T00:52:33;99348.00;;;8.08;68.02
79131;BME280;72396;45.194;9.142;2024-01-06T00:54:58;99351.03;;;7.99;67.91
79131;BME280;72396;45.194;9.142;2024-01-06T00:57:23;99350.13;;;7.79;68.43
79131;BME280;72396;45.194;9.142;2024-01-06T00:59:49;99366.00;;;7.96;68.43
79131;BME280;72396;45.194;9.142;2024-01-06T01:02:15;99350.31;;;7.95;68.23
79131;BME280;72396;45.194;9.142;2024-01-06T01:04:41;99350.25;;;7.96;67.81
79131;BME280;72396;45.194;9.142;2024-01-06T01:07:06;99342.22;;;8.00;67.87
79131;BME280;72396;45.194;9.142;2024-01-06T01:09:31;99354.00;;;7.91;68.22
79131;BME280;72396;45.194;9.142;2024-01-06T01:11:57;99352.66;;;8.01;67.92
79131;BME280;72396;45.194;9.142;2024-01-06T01:14:22;99354.03;;;8.10;68.19
79131;BME280;72396;45.194;9.142;2024-01-06T01:16:48;99350.19;;;7.98;67.86
79131;BME280;72396;45.194;9.142;2024-01-06T01:19:13;99333.41;;;7.81;68.46
79131;BME280;72396;45.194;9.142;2024-01-06T01:21:39;99347.91;;;7.90;68.30
79131;BME280;72396;45.194;9.142;2024-01-06T01:24:05;99343.09;;;8.00;67.90
79131;BME280;72396;45.194;9.142;2024-01-06T01:26:30;99331.47;;;7.85;67.65
79131;BME280;72396;45.194;9.142;2024-01-06T01:28:55;99349.59;;;7.91;68.19
79131;BME280;72396;45.194;9.142;2024-01-06T01:31:21;99339.94;;;7.92;68.14
79131;BME280;72396;45.194;9.142;2024-01-06T01:33:46;99342.66;;;7.90;68.21
79131;BME280;72396;45.194;9.142;2024-01-06T01:36:12;99336.63;;;7.88;68.04
79131;BME280;72396;45.194;9.142;2024-01-06T01:38:37;99342.38;;;7.96;68.16
79131;BME280;72396;45.194;9.142;2024-01-06T01:41:03;99353.44;;;8.03;67.82
79131;BME280;72396;45.194;9.142;2024-01-06T01:43:28;99346.63;;;7.99;67.93
79131;BME280;72396;45.194;9.142;2024-01-06T01:45:54;99353.66;;;7.99;67.88
79131;BME280;72396;45.194;9.142;2024-01-06T01:48:23;99358.47;;;7.89;67.54
79131;BME280;72396;45.194;9.142;2024-01-06T01:50:48;99369.16;;;7.84;68.33
79131;BME280;72396;45.194;9.142;2024-01-06T01:53:14;99356.63;;;7.91;67.61
79131;BME280;72396;45.194;9.142;2024-01-06T01:55:43;99362.72;;;7.91;67.77
79131;BME280;72396;45.194;9.142;2024-01-06T01:58:10;99359.69;;;8.01;67.90
79131;BME280;72396;45.194;9.142;2024-01-06T02:00:37;99350.25;;;7.96;67.88
79131;BME280;72396;45.194;9.142;2024-01-06T02:03:04;99352.03;;;7.96;67.78
79131;BME280;72396;45.194;9.142;2024-01-06T02:05:30;99327.28;;;7.81;68.10
79131;BME280;72396;45.194;9.142;2024-01-06T02:07:55;99339.78;;;7.95;67.79
79131;BME280;72396;45.194;9.142;2024-01-06T02:10:21;99336.53;;;7.90;67.82
79131;BME280;72396;45.194;9.142;2024-01-06T02:12:48;99335.75;;;7.88;67.61
79131;BME280;72396;45.194;9.142;2024-01-06T02:15:13;99309.84;;;7.80;67.75
79131;BME280;72396;45.194;9.142;2024-01-06T02:17:38;99323.50;;;7.88;67.34
79131;BME280;72396;45.194;9.142;2024-01-06T02:20:06;99331.81;;;7.98;67.40
79131;BME280;72396;45.194;9.142;2024-01-06T02:22:32;99325.63;;;7.99;67.66
79131;BME280;72396;45.194;9.142;2024-01-06T02:24:58;99329.38;;;7.93;67.50
79131;BME280;72396;45.194;9.142;2024-01-06T02:27:23;99327.16;;;7.84;67.15
79131;BME280;72396;45.194;9.142;2024-01-06T02:29:48;99310.81;;;7.77;68.21
79131;BME280;72396;45.194;9.142;2024-01-06T02:32:14;99328.34;;;7.77;67.66
79131;BME280;72396;45.194;9.142;2024-01-06T02:34:39;99325.75;;;7.77;67.95
79131;BME280;72396;45.194;9.142;2024-01-06T02:37:04;99322.06;;;7.60;67.85
79131;BME280;72396;45.194;9.142;2024-01-06T02:39:29;99321.91;;;7.84;67.78
79131;BME280;72396;45.194;9.142;2024-01-06T02:41:55;99318.13;;;7.71;67.55
79131;BME280;72396;45.194;9.142;2024-01-06T02:44:20;99310.19;;;7.72;67.64
79131;BME280;72396;45.194;9.142;2024-01-06T02:46:45;99313.69;;;7.73;67.49
79131;BME280;72396;45.194;9.142;2024-01-06T02:49:11;99305.41;;;7.61;67.88
79131;BME280;72396;45.194;9.142;2024-01-06T02:51:36;99301.66;;;7.67;67.92
79131;BME280;72396;45.194;9.142;2024-01-06T02:54:01;99299.53;;;7.75;67.69
79131;BME280;72396;45.194;9.142;2024-01-06T02:56:27;99291.66;;;7.75;67.23
79131;BME280;72396;45.194;9.142;2024-01-06T02:58:52;99289.72;;;7.80;66.97
79131;BME280;72396;45.194;9.142;2024-01-06T03:01:18;99295.03;;;7.79;67.38
79131;BME280;72396;45.194;9.142;2024-01-06T03:03:43;99294.97;;;7.60;67.75
79131;BME280;72396;45.194;9.142;2024-01-06T03:06:08;99284.69;;;7.55;68.31
79131;BME280;72396;45.194;9.142;2024-01-06T03:08:33;99279.81;;;7.66;67.50
79131;BME280;72396;45.194;9.142;2024-01-06T03:11:00;99276.28;;;7.67;67.41
79131;BME280;72396;45.194;9.142;2024-01-06T03:13:25;99285.44;;;7.78;67.44
79131;BME280;72396;45.194;9.142;2024-01-06T03:15:50;99284.81;;;7.73;67.59
79131;BME280;72396;45.194;9.142;2024-01-06T03:18:16;99281.47;;;7.69;67.09
79131;BME280;72396;45.194;9.142;2024-01-06T03:20:41;99283.31;;;7.67;67.22
79131;BME280;72396;45.194;9.142;2024-01-06T03:23:06;99285.72;;;7.72;67.48
79131;BME280;72396;45.194;9.142;2024-01-06T03:25:32;99280.25;;;7.76;67.24
79131;BME280;72396;45.194;9.142;2024-01-06T03:27:57;99268.88;;;7.57;66.63
79131;BME280;72396;45.194;9.142;2024-01-06T03:30:22;99282.44;;;7.66;67.16
79131;BME280;72396;45.194;9.142;2024-01-06T03:32:48;99271.78;;;7.70;66.72
79131;BME280;72396;45.194;9.142;2024-01-06T03:35:13;99264.34;;;7.60;66.77
79131;BME280;72396;45.194;9.142;2024-01-06T03:37:39;99272.66;;;7.70;66.95
79131;BME280;72396;45.194;9.142;2024-01-06T03:40:04;99270.00;;;7.72;66.76
79131;BME280;72396;45.194;9.142;2024-01-06T03:42:30;99262.31;;;7.67;67.16
79131;BME280;72396;45.194;9.142;2024-01-06T03:44:56;99258.97;;;7.63;66.71
79131;BME280;72396;45.194;9.142;2024-01-06T03:47:21;99249.81;;;7.72;67.57
79131;BME280;72396;45.194;9.142;2024-01-06T03:49:47;99245.44;;;7.73;66.30
79131;BME280;72396;45.194;9.142;2024-01-06T03:52:12;99249.53;;;7.59;67.14
79131;BME280;72396;45.194;9.142;2024-01-06T03:54:39;99256.88;;;7.72;67.33
79131;BME280;72396;45.194;9.142;2024-01-06T03:57:04;99253.94;;;7.78;67.01
79131;BME280;72396;45.194;9.142;2024-01-06T03:59:29;99234.28;;;7.67;66.53
79131;BME280;72396;45.194;9.142;2024-01-06T04:01:55;99243.56;;;7.56;67.15
79131;BME280;72396;45.194;9.142;2024-01-06T04:04:20;99229.56;;;7.36;67.35
79131;BME280;72396;45.194;9.142;2024-01-06T04:06:45;99239.03;;;7.59;67.60
79131;BME280;72396;45.194;9.142;2024-01-06T04:09:11;99233.88;;;7.77;67.55
79131;BME280;72396;45.194;9.142;2024-01-06T04:11:36;99235.97;;;7.68;67.71
79131;BME280;72396;45.194;9.142;2024-01-06T04:14:01;99235.34;;;7.63;67.40
79131;BME280;72396;45.194;9.142;2024-01-06T04:16:27;99229.19;;;7.64;67.52
79131;BME280;72396;45.194;9.142;2024-01-06T04:18:53;99227.81;;;7.56;67.77
79131;BME280;72396;45.194;9.142;2024-01-06T04:21:18;99241.38;;;7.65;67.83
79131;BME280;72396;45.194;9.142;2024-01-06T04:23:43;99229.97;;;7.66;67.64
79131;BME280;72396;45.194;9.142;2024-01-06T04:26:09;99239.63;;;7.66;67.46
79131;BME280;72396;45.194;9.142;2024-01-06T04:28:34;99230.38;;;7.57;67.66
79131;BME280;72396;45.194;9.142;2024-01-06T04:31:00;99229.13;;;7.45;67.37
79131;BME280;72396;45.194;9.142;2024-01-06T04:33:25;99225.41;;;7.51;67.53
79131;BME280;72396;45.194;9.142;2024-01-06T04:35:50;99230.50;;;7.54;67.34
79131;BME280;72396;45.194;9.142;2024-01-06T04:38:16;99235.94;;;7.70;67.21
79131;BME280;72396;45.194;9.142;2024-01-06T04:40:41;99230.69;;;7.70;67.02
79131;BME280;72396;45.194;9.142;2024-01-06T04:43:06;99231.91;;;7.63;67.41
79131;BME280;72396;45.194;9.142;2024-01-06T04:45:32;99230.16;;;7.62;67.62
79131;BME280;72396;45.194;9.142;2024-01-06T04:47:57;99231.09;;;7.61;67.46
79131;BME280;72396;45.194;9.142;2024-01-06T04:50:23;99233.94;;;7.56;67.76
79131;BME280;72396;45.194;9.142;2024-01-06T04:52:48;99234.44;;;7.64;67.60
79131;BME280;72396;45.194;9.142;2024-01-06T04:55:13;99227.25;;;7.49;67.38
79131;BME280;72396;45.194;9.142;2024-01-06T04:57:39;99236.31;;;7.61;67.17
79131;BME280;72396;45.194;9.142;2024-01-06T05:00:05;99222.63;;;7.54;67.85
79131;BME280;72396;45.194;9.142;2024-01-06T05:02:30;99231.94;;;7.61;67.44
79131;BME280;72396;45.194;9.142;2024-01-06T05:04:56;99227.63;;;7.60;67.49
79131;BME280;72396;45.194;9.142;2024-01-06T05:07:21;99243.38;;;7.60;68.03
79131;BME280;72396;45.194;9.142;2024-01-06T05:09:46;99236.22;;;7.64;67.90
79131;BME280;72396;45.194;9.142;2024-01-06T05:12:12;99240.59;;;7.63;67.25
79131;BME280;72396;45.194;9.142;2024-01-06T05:14:37;99237.34;;;7.58;67.89
79131;BME280;72396;45.194;9.142;2024-01-06T05:17:03;99233.78;;;7.59;67.72
79131;BME280;72396;45.194;9.142;2024-01-06T05:19:28;99231.94;;;7.61;67.80
79131;BME280;72396;45.194;9.142;2024-01-06T05:21:54;99226.13;;;7.54;68.15
79131;BME280;72396;45.194;9.142;2024-01-06T05:24:19;99222.19;;;7.65;67.75
79131;BME280;72396;45.194;9.142;2024-01-06T05:26:45;99224.56;;;7.70;66.98
79131;BME280;72396;45.194;9.142;2024-01-06T05:29:10;99213.72;;;7.58;67.84
79131;BME280;72396;45.194;9.142;2024-01-06T05:31:35;99214.06;;;7.50;67.89
79131;BME280;72396;45.194;9.142;2024-01-06T05:34:01;99215.63;;;7.54;67.95
79131;BME280;72396;45.194;9.142;2024-01-06T05:36:26;99226.19;;;7.53;67.61
79131;BME280;72396;45.194;9.142;2024-01-06T05:38:51;99228.13;;;7.68;67.52
79131;BME280;72396;45.194;9.142;2024-01-06T05:41:17;99225.56;;;7.67;67.21
79131;BME280;72396;45.194;9.142;2024-01-06T05:43:42;99216.06;;;7.64;67.79
79131;BME280;72396;45.194;9.142;2024-01-06T05:46:08;99187.25;;;7.44;67.41
79131;BME280;72396;45.194;9.142;2024-01-06T05:48:33;99202.03;;;7.46;67.54
79131;BME280;72396;45.194;9.142;2024-01-06T05:50:59;99210.03;;;7.62;67.73
79131;BME280;72396;45.194;9.142;2024-01-06T05:53:24;99211.72;;;7.63;67.46
79131;BME280;72396;45.194;9.142;2024-01-06T05:55:49;99214.06;;;7.70;67.79
79131;BME280;72396;45.194;9.142;2024-01-06T05:58:15;99213.03;;;7.74;67.70
79131;BME280;72396;45.194;9.142;2024-01-06T06:00:41;99201.53;;;7.57;68.25
79131;BME280;72396;45.194;9.142;2024-01-06T06:03:06;99215.28;;;7.62;68.05
79131;BME280;72396;45.194;9.142;2024-01-06T06:05:33;99209.97;;;7.64;67.98
79131;BME280;72396;45.194;9.142;2024-01-06T06:07:58;99217.19;;;7.59;68.29
79131;BME280;72396;45.194;9.142;2024-01-06T06:10:23;99216.50;;;7.55;68.39
79131;BME280;72396;45.194;9.142;2024-01-06T06:12:54;99217.19;;;7.59;68.13
79131;BME280;72396;45.194;9.142;2024-01-06T06:15:20;99216.97;;;7.63;68.23
79131;BME280;72396;45.194;9.142;2024-01-06T06:17:45;99210.41;;;7.74;68.20
79131;BME280;72396;45.194;9.142;2024-01-06T06:20:11;99198.91;;;7.57;68.08
79131;BME280;72396;45.194;9.142;2024-01-06T06:22:37;99208.69;;;7.53;68.37
79131;BME280;72396;45.194;9.142;2024-01-06T06:25:02;99209.97;;;7.64;68.30
79131;BME280;72396;45.194;9.142;2024-01-06T06:27:28;99200.47;;;7.61;68.46
79131;BME280;72396;45.194;9.142;2024-01-06T06:29:55;99211.81;;;7.81;68.03
79131;BME280;72396;45.194;9.142;2024-01-06T06:32:21;99213.38;;;7.66;68.32
79131;BME280;72396;45.194;9.142;2024-01-06T06:34:52;99212.75;;;7.80;67.97
79131;BME280;72396;45.194;9.142;2024-01-06T06:37:17;99214.72;;;7.75;67.92
79131;BME280;72396;45.194;9.142;2024-01-06T06:39:43;99214.72;;;7.75;67.72
79131;BME280;72396;45.194;9.142;2024-01-06T06:42:09;99216.44;;;7.76;68.00
79131;BME280;72396;45.194;9.142;2024-01-06T06:44:35;99214.66;;;7.57;68.33
79131;BME280;72396;45.194;9.142;2024-01-06T06:47:00;99209.25;;;7.60;68.39
79131;BME280;72396;45.194;9.142;2024-01-06T06:49:26;99217.56;;;7.70;67.94
79131;BME280;72396;45.194;9.142;2024-01-06T06:51:51;99204.50;;;7.68;67.87
79131;BME280;72396;45.194;9.142;2024-01-06T06:54:16;99200.31;;;7.64;67.91
79131;BME280;72396;45.194;9.142;2024-01-06T06:56:42;99206.50;;;7.63;67.93
79131;BME280;72396;45.194;9.142;2024-01-06T06:59:08;99207.47;;;7.61;68.32
79131;BME280;72396;45.194;9.142;2024-01-06T07:01:34;99218.19;;;7.75;68.03
79131;BME280;72396;45.194;9.142;2024-01-06T07:04:00;99212.47;;;7.67;68.38
79131;BME280;72396;45.194;9.142;2024-01-06T07:06:26;99211.53;;;7.68;68.19
79131;BME280;72396;45.194;9.142;2024-01-06T07:08:51;99217.84;;;7.64;68.08
79131;BME280;72396;45.194;9.142;2024-01-06T07:11:16;99215.50;;;7.77;68.51
79131;BME280;72396;45.194;9.142;2024-01-06T07:13:44;99214.94;;;7.70;68.69
79131;BME280;72396;45.194;9.142;2024-01-06T07:16:09;99221.41;;;7.63;68.25
79131;BME280;72396;45.194;9.142;2024-01-06T07:18:34;99206.19;;;7.70;68.10
79131;BME280;72396;45.194;9.142;2024-01-06T07:21:00;99207.06;;;7.70;68.58
79131;BME280;72396;45.194;9.142;2024-01-06T07:23:25;99216.09;;;7.84;68.36
79131;BME280;72396;45.194;9.142;2024-01-06T07:25:50;99224.38;;;7.93;68.44
79131;BME280;72396;45.194;9.142;2024-01-06T07:28:16;99213.09;;;7.91;67.87
79131;BME280;72396;45.194;9.142;2024-01-06T07:30:41;99227.06;;;7.92;68.30
79131;BME280;72396;45.194;9.142;2024-01-06T07:33:07;99226.22;;;7.91;68.24
79131;BME280;72396;45.194;9.142;2024-01-06T07:35:33;99232.53;;;7.87;67.84
79131;BME280;72396;45.194;9.142;2024-01-06T07:37:58;99222.25;;;7.82;68.47
79131;BME280;72396;45.194;9.142;2024-01-06T07:40:23;99240.91;;;7.95;68.00
79131;BME280;72396;45.194;9.142;2024-01-06T07:42:50;99243.31;;;7.81;68.26
79131;BME280;72396;45.194;9.142;2024-01-06T07:45:16;99251.13;;;7.82;68.62
79131;BME280;72396;45.194;9.142;2024-01-06T07:47:42;99250.13;;;7.85;68.59
79131;BME280;72396;45.194;9.142;2024-01-06T07:50:08;99252.63;;;7.88;68.12
79131;BME280;72396;45.194;9.142;2024-01-06T07:52:34;99222.38;;;7.60;68.49
79131;BME280;72396;45.194;9.142;2024-01-06T07:54:59;99254.53;;;7.85;68.40
79131;BME280;72396;45.194;9.142;2024-01-06T07:57:24;99250.41;;;7.79;68.24
79131;BME280;72396;45.194;9.142;2024-01-06T07:59:50;99243.47;;;7.78;68.74
79131;BME280;72396;45.194;9.142;2024-01-06T08:02:16;99230.38;;;7.76;68.29
79131;BME280;72396;45.194;9.142;2024-01-06T08:04:41;99240.19;;;7.92;68.40
79131;BME280;72396;45.194;9.142;2024-01-06T08:07:06;99230.34;;;7.78;68.60
79131;BME280;72396;45.194;9.142;2024-01-06T08:09:32;99244.66;;;7.90;68.42
79131;BME280;72396;45.194;9.142;2024-01-06T08:11:57;99221.81;;;7.73;68.87
79131;BME280;72396;45.194;9.142;2024-01-06T08:14:22;99230.13;;;7.82;68.55
79131;BME280;72396;45.194;9.142;2024-01-06T08:16:48;99244.75;;;7.88;68.82
79131;BME280;72396;45.194;9.142;2024-01-06T08:19:13;99248.22;;;7.89;68.33
79131;BME280;72396;45.194;9.142;2024-01-06T08:21:39;99249.34;;;7.83;68.88
79131;BME280;72396;45.194;9.142;2024-01-06T08:24:04;99244.88;;;7.85;68.67
79131;BME280;72396;45.194;9.142;2024-01-06T08:26:30;99247.28;;;7.90;68.36
79131;BME280;72396;45.194;9.142;2024-01-06T08:28:56;99241.59;;;7.80;69.47
79131;BME280;72396;45.194;9.142;2024-01-06T08:31:21;99250.91;;;7.68;69.01
79131;BME280;72396;45.194;9.142;2024-01-06T08:33:48;99250.41;;;7.79;68.90
79131;BME280;72396;45.194;9.142;2024-01-06T08:36:13;99253.56;;;7.66;69.82
79131;BME280;72396;45.194;9.142;2024-01-06T08:38:38;99241.97;;;7.72;69.63
79131;BME280;72396;45.194;9.142;2024-01-06T08:41:04;99264.00;;;7.87;69.31
79131;BME280;72396;45.194;9.142;2024-01-06T08:43:29;99267.44;;;7.89;69.33
79131;BME280;72396;45.194;9.142;2024-01-06T08:45:54;99256.03;;;7.90;68.69
79131;BME280;72396;45.194;9.142;2024-01-06T08:48:20;99259.94;;;7.81;68.84
79131;BME280;72396;45.194;9.142;2024-01-06T08:50:46;99266.28;;;7.95;68.86
79131;BME280;72396;45.194;9.142;2024-01-06T08:53:12;99255.50;;;7.82;68.86
79131;BME280;72396;45.194;9.142;2024-01-06T08:55:37;99257.78;;;7.90;69.17
79131;BME280;72396;45.194;9.142;2024-01-06T08:58:02;99259.00;;;7.82;69.39
79131;BME280;72396;45.194;9.142;2024-01-06T09:00:28;99258.56;;;7.92;69.46
79131;BME280;72396;45.194;9.142;2024-01-06T09:02:53;99273.47;;;7.91;69.15
79131;BME280;72396;45.194;9.142;2024-01-06T09:05:19;99273.31;;;7.75;69.58
79131;BME280;72396;45.194;9.142;2024-01-06T09:07:44;99275.53;;;7.85;69.49
79131;BME280;72396;45.194;9.142;2024-01-06T09:10:14;99276.94;;;7.92;69.78
79131;BME280;72396;45.194;9.142;2024-01-06T09:12:39;99281.78;;;8.01;69.59
79131;BME280;72396;45.194;9.142;2024-01-06T09:15:05;99288.94;;;7.97;68.98
79131;BME280;72396;45.194;9.142;2024-01-06T09:17:30;99284.34;;;8.22;68.48
79131;BME280;72396;45.194;9.142;2024-01-06T09:19:56;99282.78;;;8.18;68.31
79131;BME280;72396;45.194;9.142;2024-01-06T09:22:21;99291.50;;;8.18;68.76
79131;BME280;72396;45.194;9.142;2024-01-06T09:24:49;99294.63;;;8.07;69.01
79131;BME280;72396;45.194;9.142;2024-01-06T09:27:14;99269.50;;;8.02;69.33
79131;BME280;72396;45.194;9.142;2024-01-06T09:29:41;99268.22;;;7.91;69.28
79131;BME280;72396;45.194;9.142;2024-01-06T09:32:06;99285.91;;;8.07;68.81
79131;BME280;72396;45.194;9.142;2024-01-06T09:34:32;99278.81;;;8.09;69.18
79131;BME280;72396;45.194;9.142;2024-01-06T09:36:57;99277.69;;;8.15;69.69
79131;BME280;72396;45.194;9.142;2024-01-06T09:39:22;99265.03;;;8.23;69.04
79131;BME280;72396;45.194;9.142;2024-01-06T09:41:48;99258.47;;;8.32;68.71
79131;BME280;72396;45.194;9.142;2024-01-06T09:44:13;99256.31;;;8.22;69.01
79131;BME280;72396;45.194;9.142;2024-01-06T09:46:38;99257.63;;;8.50;68.16
79131;BME280;72396;45.194;9.142;2024-01-06T09:49:05;99248.34;;;8.43;68.41
79131;BME280;72396;45.194;9.142;2024-01-06T09:51:31;99258.84;;;8.43;68.70
79131;BME280;72396;45.194;9.142;2024-01-06T09:54:01;99267.44;;;8.47;68.78
79131;BME280;72396;45.194;9.142;2024-01-06T09:56:29;99237.06;;;8.22;69.20
79131;BME280;72396;45.194;9.142;2024-01-06T09:58:55;99248.44;;;8.22;69.05
79131;BME280;72396;45.194;9.142;2024-01-06T10:01:21;99255.38;;;8.23;69.64
79131;BME280;72396;45.194;9.142;2024-01-06T10:03:46;99247.91;;;8.33;69.74
79131;BME280;72396;45.194;9.142;2024-01-06T10:06:15;99238.56;;;8.28;69.29
79131;BME280;72396;45.194;9.142;2024-01-06T10:08:48;99245.56;;;8.27;69.34
79131;BME280;72396;45.194;9.142;2024-01-06T10:11:13;99249.69;;;8.33;69.36
79131;BME280;72396;45.194;9.142;2024-01-06T10:13:39;99240.25;;;8.29;69.34
79131;BME280;72396;45.194;9.142;2024-01-06T10:16:05;99241.38;;;8.42;69.23
79131;BME280;72396;45.194;9.142;2024-01-06T10:18:31;99232.63;;;8.42;69.11
79131;BME280;72396;45.194;9.142;2024-01-06T10:20:57;99228.44;;;8.37;69.20
79131;BME280;72396;45.194;9.142;2024-01-06T10:23:32;99234.19;;;8.46;69.52
79131;BME280;72396;45.194;9.142;2024-01-06T10:25:58;99224.59;;;8.45;69.33
79131;BME280;72396;45.194;9.142;2024-01-06T10:28:24;99231.13;;;8.36;69.53
79131;BME280;72396;45.194;9.142;2024-01-06T10:30:51;99211.91;;;8.35;69.80
79131;BME280;72396;45.194;9.142;2024-01-06T10:33:18;99213.88;;;8.49;69.41
79131;BME280;72396;45.194;9.142;2024-01-06T10:35:43;99205.38;;;8.44;69.56
79131;BME280;72396;45.194;9.142;2024-01-06T10:38:11;99203.25;;;8.33;69.94
79131;BME280;72396;45.194;9.142;2024-01-06T10:40:36;99202.81;;;8.43;69.93
79131;BME280;72396;45.194;9.142;2024-01-06T10:43:03;99210.34;;;8.50;70.14
79131;BME280;72396;45.194;9.142;2024-01-06T10:45:29;99196.28;;;8.51;69.92
79131;BME280;72396;45.194;9.142;2024-01-06T10:47:57;99190.19;;;8.51;70.17
79131;BME280;72396;45.194;9.142;2024-01-06T10:50:24;99189.81;;;8.76;69.61
79131;BME280;72396;45.194;9.142;2024-01-06T10:52:51;99179.91;;;8.64;69.71
79131;BME280;72396;45.194;9.142;2024-01-06T10:55:18;99177.81;;;8.53;69.83
79131;BME280;72396;45.194;9.142;2024-01-06T10:57:46;99184.63;;;8.57;70.55
79131;BME280;72396;45.194;9.142;2024-01-06T11:00:12;99186.47;;;8.55;70.04
79131;BME280;72396;45.194;9.142;2024-01-06T11:02:39;99178.38;;;8.60;69.88
79131;BME280;72396;45.194;9.142;2024-01-06T11:05:04;99154.47;;;8.47;69.80
79131;BME280;72396;45.194;9.142;2024-01-06T11:07:33;99173.03;;;8.61;69.91
79131;BME280;72396;45.194;9.142;2024-01-06T11:10:10;99169.16;;;8.51;70.15
79131;BME280;72396;45.194;9.142;2024-01-06T11:12:36;99173.81;;;8.63;70.19
79131;BME280;72396;45.194;9.142;2024-01-06T11:15:01;99159.75;;;8.64;69.92
79131;BME280;72396;45.194;9.142;2024-01-06T11:17:51;99170.16;;;8.66;69.99
79131;BME280;72396;45.194;9.142;2024-01-06T11:20:19;99150.06;;;8.65;69.76
79131;BME280;72396;45.194;9.142;2024-01-06T11:22:45;99173.56;;;8.68;69.82
79131;BME280;72396;45.194;9.142;2024-01-06T11:25:15;99166.59;;;8.67;70.00
79131;BME280;72396;45.194;9.142;2024-01-06T11:27:43;99163.97;;;8.67;70.08
79131;BME280;72396;45.194;9.142;2024-01-06T11:30:19;99158.13;;;8.62;70.17
79131;BME280;72396;45.194;9.142;2024-01-06T11:32:45;99145.59;;;8.67;69.99
79131;BME280;72396;45.194;9.142;2024-01-06T11:35:13;99146.22;;;8.72;70.32
79131;BME280;72396;45.194;9.142;2024-01-06T11:43:03;99129.81;;;8.67;70.21
79131;BME280;72396;45.194;9.142;2024-01-06T11:45:30;99120.63;;;8.76;70.03
79131;BME280;72396;45.194;9.142;2024-01-06T11:47:59;99125.81;;;8.77;70.30
79131;BME280;72396;45.194;9.142;2024-01-06T11:50:26;99120.72;;;8.74;70.67
79131;BME280;72396;45.194;9.142;2024-01-06T11:52:53;99115.91;;;8.82;70.40
79131;BME280;72396;45.194;9.142;2024-01-06T11:55:19;99108.25;;;8.78;70.01
79131;BME280;72396;45.194;9.142;2024-01-06T11:57:44;99124.00;;;8.95;70.12
79131;BME280;72396;45.194;9.142;2024-01-06T12:00:11;99111.09;;;8.91;70.09
79131;BME280;72396;45.194;9.142;2024-01-06T12:02:37;99113.41;;;8.97;69.87
79131;BME280;72396;45.194;9.142;2024-01-06T12:05:02;99102.16;;;8.77;70.40
79131;BME280;72396;45.194;9.142;2024-01-06T12:07:28;99101.16;;;8.80;70.38
79131;BME280;72396;45.194;9.142;2024-01-06T12:10:03;99099.81;;;8.89;70.10
79131;BME280;72396;45.194;9.142;2024-01-06T12:12:28;99096.84;;;8.95;69.92
79131;BME280;72396;45.194;9.142;2024-01-06T12:14:54;99100.47;;;8.92;69.95
79131;BME280;72396;45.194;9.142;2024-01-06T12:17:20;99082.47;;;8.85;70.00
79131;BME280;72396;45.194;9.142;2024-01-06T12:19:46;99077.56;;;8.78;70.01
79131;BME280;72396;45.194;9.142;2024-01-06T12:22:14;99081.41;;;8.89;70.36
79131;BME280;72396;45.194;9.142;2024-01-06T12:24:40;99078.09;;;8.85;70.01
79131;BME280;72396;45.194;9.142;2024-01-06T12:27:09;99083.47;;;9.00;70.29
79131;BME280;72396;45.194;9.142;2024-01-06T12:29:38;99073.38;;;8.92;69.86
79131;BME280;72396;45.194;9.142;2024-01-06T12:32:05;99064.94;;;8.85;70.57
79131;BME280;72396;45.194;9.142;2024-01-06T12:34:31;99073.44;;;8.90;70.86
79131;BME280;72396;45.194;9.142;2024-01-06T12:36:56;99057.41;;;8.95;70.46
79131;BME280;72396;45.194;9.142;2024-01-06T12:39:21;99062.16;;;8.88;70.79
79131;BME280;72396;45.194;9.142;2024-01-06T12:41:49;99065.78;;;8.86;70.94
79131;BME280;72396;45.194;9.142;2024-01-06T12:44:15;99054.09;;;8.91;70.62
79131;BME280;72396;45.194;9.142;2024-01-06T12:46:40;99052.63;;;8.86;70.59
79131;BME280;72396;45.194;9.142;2024-01-06T12:49:06;99056.31;;;8.99;70.30
79131;BME280;72396;45.194;9.142;2024-01-06T12:51:32;99044.88;;;9.00;70.20
79131;BME280;72396;45.194;9.142;2024-01-06T12:53:58;99049.53;;;8.95;70.50
79131;BME280;72396;45.194;9.142;2024-01-06T12:56:23;99046.56;;;9.01;70.29
79131;BME280;72396;45.194;9.142;2024-01-06T12:58:48;99043.09;;;9.01;70.50
79131;BME280;72396;45.194;9.142;2024-01-06T13:01:14;99042.16;;;9.02;70.23
79131;BME280;72396;45.194;9.142;2024-01-06T13:03:39;99046.31;;;9.06;70.52
79131;BME280;72396;45.194;9.142;2024-01-06T13:06:05;99008.56;;;8.91;70.39
79131;BME280;72396;45.194;9.142;2024-01-06T13:08:30;99034.19;;;9.03;70.42